createdAt,value
2022-08-01T00:00:52.097Z,63.30
2022-08-01T00:03:19.871Z,63.40
2022-08-01T00:05:48.045Z,63.50
2022-08-01T00:08:15.809Z,63.50
2022-08-01T00:10:44.986Z,63.60
2022-08-01T00:13:12.915Z,63.60
2022-08-01T00:15:40.722Z,63.60
2022-08-01T00:18:12.101Z,63.60
2022-08-01T00:20:39.959Z,63.70
2022-08-01T00:23:07.811Z,63.70
2022-08-01T00:25:35.650Z,63.70
2022-08-01T00:28:05.086Z,63.70
2022-08-01T00:30:33.084Z,63.80
2022-08-01T00:33:00.853Z,64.50
2022-08-01T00:35:29.011Z,63.80
2022-08-01T00:37:56.790Z,63.80
2022-08-01T00:40:24.814Z,63.90
2022-08-01T00:42:52.833Z,64.10
2022-08-01T00:45:21.981Z,63.90
2022-08-01T00:47:55.169Z,63.90
2022-08-01T00:50:24.827Z,63.90
2022-08-01T00:52:53.157Z,63.90
2022-08-01T00:55:21.438Z,64.00
2022-08-01T00:58:05.783Z,64.00
2022-08-01T01:00:52.879Z,64.00
2022-08-01T01:03:33.424Z,64.00
2022-08-01T01:06:25.505Z,64.00
2022-08-01T01:09:05.613Z,64.00
2022-08-01T01:11:44.805Z,64.10
2022-08-01T01:14:18.661Z,64.10
2022-08-01T01:16:49.439Z,64.10
2022-08-01T01:19:26.701Z,64.10
2022-08-01T01:22:20.823Z,64.10
2022-08-01T01:25:09.913Z,64.10
2022-08-01T01:27:47.246Z,64.10
2022-08-01T01:30:16.742Z,64.20
2022-08-01T01:32:48.639Z,64.10
2022-08-01T01:35:21.708Z,64.10
2022-08-01T01:37:51.880Z,64.20
2022-08-01T01:40:21.808Z,64.10
2022-08-01T01:42:50.914Z,64.10
2022-08-01T01:45:20.862Z,64.10
2022-08-01T01:47:49.856Z,64.10
2022-08-01T01:50:19.348Z,64.10
2022-08-01T01:52:48.399Z,65.00
2022-08-01T01:55:17.417Z,64.10
2022-08-01T01:57:46.189Z,64.10
2022-08-01T02:00:15.013Z,64.20
2022-08-01T02:02:46.514Z,64.20
2022-08-01T02:05:15.886Z,64.10
2022-08-01T02:07:45.037Z,64.10
2022-08-01T02:10:13.934Z,64.20
2022-08-01T02:12:46.371Z,64.20
2022-08-01T02:15:15.659Z,64.20
2022-08-01T02:17:48.642Z,64.20
2022-08-01T02:20:17.868Z,64.20
2022-08-01T02:22:52.107Z,64.20
2022-08-01T02:25:24.601Z,64.30
2022-08-01T02:27:59.086Z,64.30
2022-08-01T02:30:31.740Z,64.30
2022-08-01T02:33:05.861Z,64.30
2022-08-01T02:36:30.628Z,64.30
2022-08-01T02:38:30.501Z,64.30
2022-08-01T02:41:05.431Z,65.20
2022-08-01T02:43:35.988Z,64.40
2022-08-01T02:46:06.441Z,64.40
2022-08-01T02:48:38.581Z,64.30
2022-08-01T02:51:08.449Z,64.30
2022-08-01T02:53:44.603Z,64.30
2022-08-01T02:56:15.413Z,64.30
2022-08-01T02:58:45.030Z,64.30
2022-08-01T03:01:15.880Z,64.30
2022-08-01T03:03:45.342Z,64.30
2022-08-01T03:06:14.485Z,64.40
2022-08-01T03:08:44.662Z,64.40
2022-08-01T03:11:14.267Z,64.30
2022-08-01T03:13:44.659Z,64.30
2022-08-01T03:16:15.186Z,64.30
2022-08-01T03:18:45.803Z,65.20
2022-08-01T03:21:15.534Z,64.30
2022-08-01T03:23:44.737Z,64.30
2022-08-01T03:26:13.259Z,64.30
2022-08-01T03:28:43.427Z,64.30
2022-08-01T03:31:12.537Z,64.30
2022-08-01T03:33:40.443Z,64.30
2022-08-01T03:36:13.390Z,65.10
2022-08-01T03:38:43.615Z,64.30
2022-08-01T03:41:14.846Z,64.30
2022-08-01T03:43:47.788Z,64.30
2022-08-01T03:46:21.997Z,64.30
2022-08-01T03:48:57.091Z,64.30
2022-08-01T03:51:27.038Z,64.30
2022-08-01T03:53:57.148Z,64.30
2022-08-01T03:56:25.981Z,64.30
2022-08-01T03:58:54.544Z,64.30
2022-08-01T04:01:22.934Z,64.40
2022-08-01T04:03:51.155Z,64.40
2022-08-01T04:06:19.213Z,64.30
2022-08-01T04:08:56.329Z,64.40
2022-08-01T04:11:26.162Z,64.40
2022-08-01T04:13:55.328Z,64.40
2022-08-01T04:16:23.885Z,64.40
2022-08-01T04:18:52.031Z,64.40
2022-08-01T04:21:22.552Z,64.40
2022-08-01T04:23:54.511Z,64.50
2022-08-01T04:26:24.174Z,64.50
2022-08-01T04:28:53.962Z,64.50
2022-08-01T04:31:21.941Z,64.50
2022-08-01T04:33:53.134Z,64.50
2022-08-01T04:36:25.326Z,64.50
2022-08-01T04:38:59.518Z,64.60
2022-08-01T04:41:27.675Z,64.60
2022-08-01T04:43:56.431Z,64.60
2022-08-01T04:46:24.859Z,64.70
2022-08-01T04:48:53.074Z,64.70
2022-08-01T04:51:23.022Z,64.80
2022-08-01T04:53:52.352Z,64.80
2022-08-01T04:56:22.104Z,64.90
2022-08-01T04:59:09.964Z,65.00
2022-08-01T05:01:41.698Z,65.00
2022-08-01T05:04:09.525Z,65.10
2022-08-01T05:06:37.319Z,65.30
2022-08-01T05:09:05.151Z,65.40
2022-08-01T05:11:34.275Z,65.40
2022-08-01T05:14:02.265Z,65.60
2022-08-01T05:16:30.039Z,65.80
2022-08-01T05:18:57.863Z,66.00
2022-08-01T05:21:25.643Z,66.20
2022-08-01T05:23:53.429Z,66.50
2022-08-01T05:26:21.809Z,66.70
2022-08-01T05:28:50.931Z,66.90
2022-08-01T05:31:18.831Z,67.10
2022-08-01T05:33:46.641Z,67.30
2022-08-01T05:36:14.417Z,67.50
2022-08-01T05:38:42.229Z,67.70
2022-08-01T05:41:10.121Z,67.90
2022-08-01T05:43:38.107Z,68.10
2022-08-01T05:46:07.237Z,68.10
2022-08-01T05:48:35.013Z,68.30
2022-08-01T05:51:02.899Z,68.50
2022-08-01T05:53:30.911Z,68.70
2022-08-01T05:55:58.713Z,68.80
2022-08-01T05:58:26.501Z,69.00
2022-08-01T06:00:54.291Z,69.00
2022-08-01T06:03:23.428Z,69.20
2022-08-01T06:05:51.242Z,69.30
2022-08-01T06:08:19.059Z,69.40
2022-08-01T06:10:46.875Z,69.30
2022-08-01T06:13:14.677Z,69.40
2022-08-01T06:15:42.523Z,69.50
2022-08-01T06:18:10.566Z,69.60
2022-08-01T06:20:39.743Z,69.70
2022-08-01T06:23:28.524Z,69.80
2022-08-01T06:25:55.646Z,69.90
2022-08-01T06:28:23.953Z,70.00
2022-08-01T06:30:51.914Z,70.10
2022-08-01T06:33:19.727Z,70.80
2022-08-01T06:35:48.906Z,70.10
2022-08-01T06:38:16.811Z,70.10
2022-08-01T06:40:44.673Z,70.10
2022-08-01T06:43:13.219Z,70.20
2022-08-01T06:45:41.419Z,71.10
2022-08-01T06:48:09.262Z,70.30
2022-08-01T06:50:37.745Z,71.10
2022-08-01T06:53:07.264Z,70.20
2022-08-01T06:55:35.294Z,70.20
2022-08-01T06:58:03.070Z,70.20
2022-08-01T07:00:30.969Z,70.20
2022-08-01T07:03:00.434Z,70.40
2022-08-01T07:05:28.447Z,70.40
2022-08-01T07:07:56.509Z,70.50
2022-08-01T07:10:25.657Z,70.50
2022-08-01T07:12:53.453Z,70.50
2022-08-01T07:15:27.072Z,70.50
2022-08-01T07:17:54.934Z,70.50
2022-08-01T07:20:22.794Z,70.50
2022-08-01T07:22:51.107Z,70.50
2022-08-01T07:25:18.932Z,70.60
2022-08-01T07:27:48.099Z,70.50
2022-08-01T07:30:15.933Z,70.60
2022-08-01T07:32:43.801Z,71.50
2022-08-01T07:35:12.001Z,70.70
2022-08-01T07:37:42.069Z,70.70
2022-08-01T07:40:16.944Z,70.70
2022-08-01T07:42:45.832Z,70.70
2022-08-01T07:45:15.897Z,70.60
2022-08-01T07:47:44.091Z,70.70
2022-08-01T07:50:13.431Z,70.70
2022-08-01T07:52:41.312Z,70.70
2022-08-01T07:55:10.480Z,70.80
2022-08-01T07:57:38.351Z,70.90
2022-08-01T08:00:09.627Z,70.90
2022-08-01T08:02:38.801Z,70.90
2022-08-01T08:05:08.176Z,71.10
2022-08-01T08:07:36.291Z,71.20
2022-08-01T08:10:04.975Z,71.10
2022-08-01T08:12:34.063Z,71.30
2022-08-01T08:15:02.151Z,71.30
2022-08-01T08:17:36.154Z,71.40
2022-08-01T08:20:09.365Z,71.50
2022-08-01T08:22:38.397Z,72.30
2022-08-01T08:25:08.227Z,71.60
2022-08-01T08:27:37.519Z,71.60
2022-08-01T08:30:09.230Z,71.60
2022-08-01T08:32:37.462Z,71.60
2022-08-01T08:35:08.117Z,71.70
2022-08-01T08:37:37.991Z,71.80
2022-08-01T08:40:12.042Z,71.80
2022-08-01T08:42:42.054Z,71.80
2022-08-01T08:45:11.956Z,71.90
2022-08-01T08:47:41.391Z,72.00
2022-08-01T08:50:11.281Z,72.00
2022-08-01T08:52:41.102Z,72.00
2022-08-01T08:55:10.692Z,72.00
2022-08-01T08:57:41.862Z,72.00
2022-08-01T09:00:11.915Z,72.00
2022-08-01T09:02:43.191Z,72.00
2022-08-01T09:05:16.222Z,72.00
2022-08-01T09:07:47.294Z,72.10
2022-08-01T09:10:15.248Z,72.00
2022-08-01T09:13:07.356Z,71.90
2022-08-01T09:15:46.015Z,72.00
2022-08-01T09:18:31.795Z,71.80
2022-08-01T09:21:15.814Z,71.80
2022-08-01T09:23:53.995Z,71.80
2022-08-01T09:26:30.581Z,71.70
2022-08-01T09:28:59.368Z,71.50
2022-08-01T09:31:38.394Z,71.50
2022-08-01T09:34:08.434Z,71.50
2022-08-01T09:36:52.133Z,71.50
2022-08-01T09:39:24.582Z,71.40
2022-08-01T09:41:52.930Z,71.30
2022-08-01T09:44:42.584Z,71.30
2022-08-01T09:47:11.069Z,71.20
2022-08-01T09:49:50.772Z,71.30
2022-08-01T09:52:25.898Z,71.10
2022-08-01T09:54:56.139Z,71.00
2022-08-01T09:57:24.078Z,70.90
2022-08-01T09:59:58.724Z,70.80
2022-08-01T10:02:32.017Z,70.70
2022-08-01T10:05:03.274Z,70.60
2022-08-01T10:07:44.972Z,70.50
2022-08-01T10:10:14.879Z,70.40
2022-08-01T10:12:45.517Z,70.20
2022-08-01T10:15:18.106Z,70.10
2022-08-01T10:17:54.708Z,70.10
2022-08-01T10:20:29.933Z,70.10
2022-08-01T10:23:05.673Z,69.90
2022-08-01T10:25:42.097Z,69.90
2022-08-01T10:28:17.965Z,69.90
2022-08-01T10:30:49.861Z,69.70
2022-08-01T10:33:49.831Z,69.60
2022-08-01T10:36:08.309Z,69.50
2022-08-01T10:38:38.146Z,69.50
2022-08-01T10:41:08.900Z,69.50
2022-08-01T10:43:37.218Z,69.50
2022-08-01T10:46:05.900Z,69.50
2022-08-01T10:48:43.531Z,69.40
2022-08-01T10:51:18.823Z,69.40
2022-08-01T10:53:56.000Z,69.40
2022-08-01T10:56:27.071Z,69.40
2022-08-01T10:59:06.240Z,69.30
2022-08-01T11:01:45.264Z,69.40
2022-08-01T11:04:16.995Z,69.40
2022-08-01T11:06:55.685Z,69.50
2022-08-01T11:09:36.864Z,69.50
2022-08-01T11:12:13.421Z,69.50
2022-08-01T11:15:29.885Z,69.40
2022-08-01T11:18:01.101Z,69.40
2022-08-01T11:20:32.092Z,69.30
2022-08-01T11:23:29.302Z,69.20
2022-08-01T11:26:29.487Z,69.10
2022-08-01T11:29:21.649Z,68.80
2022-08-01T11:31:52.592Z,68.60
2022-08-01T11:34:20.537Z,68.50
2022-08-01T11:36:58.893Z,68.30
2022-08-01T11:39:27.823Z,68.20
2022-08-01T11:42:19.888Z,68.00
2022-08-01T11:44:52.532Z,67.90
2022-08-01T11:47:40.613Z,67.70
2022-08-01T11:50:28.765Z,67.70
2022-08-01T11:52:59.831Z,67.50
2022-08-01T11:55:31.556Z,67.50
2022-08-01T11:58:06.410Z,67.30
2022-08-01T12:00:34.694Z,67.30
2022-08-01T12:03:04.982Z,67.10
2022-08-01T12:05:35.179Z,67.00
2022-08-01T12:08:03.451Z,66.90
2022-08-01T12:10:49.549Z,66.90
2022-08-01T12:13:20.563Z,66.80
2022-08-01T12:15:50.543Z,66.60
2022-08-01T12:18:22.051Z,66.40
2022-08-01T12:20:56.524Z,66.40
2022-08-01T12:23:24.697Z,66.40
2022-08-01T12:25:54.350Z,66.40
2022-08-01T12:28:23.778Z,66.30
2022-08-01T12:30:52.595Z,66.20
2022-08-01T12:33:21.729Z,66.20
2022-08-01T12:35:49.901Z,66.10
2022-08-01T12:38:20.092Z,66.20
2022-08-01T12:40:53.200Z,66.00
2022-08-01T12:43:28.556Z,65.90
2022-08-01T12:45:59.844Z,65.90
2022-08-01T12:48:28.687Z,65.80
2022-08-01T12:50:59.083Z,65.70
2022-08-01T12:53:40.905Z,65.70
2022-08-01T12:56:10.478Z,65.60
2022-08-01T12:58:40.066Z,65.60
2022-08-01T13:01:09.757Z,65.60
2022-08-01T13:03:38.535Z,65.50
2022-08-01T13:06:13.378Z,65.50
2022-08-01T13:08:41.306Z,65.40
2022-08-01T13:11:10.722Z,65.40
2022-08-01T13:13:43.347Z,65.50
2022-08-01T13:16:15.583Z,65.40
2022-08-01T13:18:51.489Z,65.50
2022-08-01T13:21:21.015Z,65.50
2022-08-01T13:24:04.401Z,65.50
2022-08-01T13:26:42.915Z,65.40
2022-08-01T13:29:13.847Z,65.30
2022-08-01T13:31:42.620Z,65.20
2022-08-01T13:34:10.855Z,65.20
2022-08-01T13:36:40.687Z,65.20
2022-08-01T13:39:29.763Z,65.20
2022-08-01T13:41:57.914Z,65.20
2022-08-01T13:44:27.057Z,65.30
2022-08-01T13:46:54.881Z,65.30
2022-08-01T13:49:22.967Z,65.40
2022-08-01T13:51:51.911Z,65.50
2022-08-01T13:54:20.147Z,65.60
2022-08-01T13:56:48.010Z,65.60
2022-08-01T13:59:15.809Z,65.70
2022-08-01T14:01:45.035Z,65.70
2022-08-01T14:04:12.931Z,65.80
2022-08-01T14:06:41.979Z,65.90
2022-08-01T14:09:17.511Z,65.90
2022-08-01T14:11:46.280Z,65.90
2022-08-01T14:14:15.209Z,66.00
2022-08-01T14:16:45.644Z,65.90
2022-08-01T14:19:13.626Z,66.00
2022-08-01T14:21:41.415Z,66.00
2022-08-01T14:24:10.545Z,66.00
2022-08-01T14:26:38.779Z,65.90
2022-08-01T14:29:06.597Z,66.00
2022-08-01T14:31:34.728Z,66.00
2022-08-01T14:34:04.386Z,65.90
2022-08-01T14:36:38.073Z,66.00
2022-08-01T14:39:06.431Z,66.10
2022-08-01T14:41:34.646Z,65.90
2022-08-01T14:44:02.806Z,66.10
2022-08-01T14:46:31.592Z,66.10
2022-08-01T14:49:03.119Z,66.10
2022-08-01T14:51:34.014Z,66.10
2022-08-01T14:54:01.856Z,66.20
2022-08-01T14:56:31.825Z,66.20
2022-08-01T14:58:59.924Z,66.20
2022-08-01T15:01:27.842Z,66.20
2022-08-01T15:03:56.772Z,66.20
2022-08-01T15:06:25.948Z,66.30
2022-08-01T15:08:53.763Z,66.30
2022-08-01T15:11:21.558Z,66.40
2022-08-01T15:14:10.855Z,66.40
2022-08-01T15:16:38.710Z,66.50
2022-08-01T15:19:06.715Z,66.50
2022-08-01T15:21:41.612Z,66.60
2022-08-01T15:24:10.973Z,66.70
2022-08-01T15:26:38.858Z,66.70
2022-08-01T15:29:06.803Z,66.70
2022-08-01T15:31:34.621Z,66.80
2022-08-01T15:34:06.909Z,66.80
2022-08-01T15:36:36.188Z,66.90
2022-08-01T15:39:04.277Z,66.90
2022-08-01T15:41:32.091Z,66.90
2022-08-01T15:43:59.899Z,67.00
2022-08-01T15:46:27.759Z,67.00
2022-08-01T15:48:55.587Z,67.10
2022-08-01T15:51:23.558Z,67.10
2022-08-01T15:53:52.682Z,67.10
2022-08-01T15:56:20.477Z,67.20
2022-08-01T15:58:48.279Z,67.20
2022-08-01T16:01:16.145Z,67.20
2022-08-01T16:03:43.983Z,67.20
2022-08-01T16:06:11.778Z,67.30
2022-08-01T16:08:39.588Z,67.30
2022-08-01T16:11:08.733Z,67.30
2022-08-01T16:13:36.549Z,67.40
2022-08-01T16:16:04.897Z,67.40
2022-08-01T16:18:32.755Z,67.50
2022-08-01T16:21:00.661Z,67.50
2022-08-01T16:23:28.874Z,67.60
2022-08-01T16:25:56.821Z,67.70
2022-08-01T16:28:26.376Z,67.70
2022-08-01T16:31:12.918Z,67.80
2022-08-01T16:33:54.303Z,67.80
2022-08-01T16:36:25.008Z,67.80
2022-08-01T16:38:53.113Z,67.80
2022-08-01T16:41:20.961Z,67.80
2022-08-01T16:43:53.295Z,67.80
2022-08-01T16:46:22.292Z,67.90
2022-08-01T16:48:50.259Z,67.90
2022-08-01T16:51:18.151Z,68.00
2022-08-01T16:53:45.943Z,68.00
2022-08-01T16:56:13.758Z,68.00
2022-08-01T16:58:41.651Z,68.00
2022-08-01T17:01:59.313Z,68.10
2022-08-01T17:04:01.530Z,68.10
2022-08-01T17:06:29.903Z,68.20
2022-08-01T17:08:57.752Z,68.30
2022-08-01T17:11:25.607Z,68.40
2022-08-01T17:13:53.494Z,68.50
2022-08-01T17:16:22.976Z,68.50
2022-08-01T17:18:50.825Z,68.60
2022-08-01T17:21:18.994Z,68.60
2022-08-01T17:23:46.813Z,68.60
2022-08-01T17:26:14.593Z,68.70
2022-08-01T17:28:42.839Z,68.80
2022-08-01T17:31:10.869Z,68.90
2022-08-01T17:33:45.118Z,69.00
2022-08-01T17:36:15.105Z,69.00
2022-08-01T17:38:42.986Z,69.00
2022-08-01T17:41:10.894Z,69.10
2022-08-01T17:43:38.679Z,69.00
2022-08-01T17:46:06.526Z,69.00
2022-08-01T17:48:34.339Z,69.00
2022-08-01T17:51:03.527Z,69.00
2022-08-01T17:53:31.757Z,69.00
2022-08-01T17:56:02.218Z,69.00
2022-08-01T17:58:33.726Z,69.00
2022-08-01T18:01:19.190Z,68.90
2022-08-01T18:03:47.430Z,68.80
2022-08-01T18:06:19.223Z,68.70
2022-08-01T18:08:48.449Z,68.80
2022-08-01T18:11:17.316Z,68.80
2022-08-01T18:13:45.737Z,68.80
2022-08-01T18:16:14.280Z,68.70
2022-08-01T18:18:43.905Z,68.70
2022-08-01T18:21:13.462Z,68.70
2022-08-01T18:23:51.277Z,68.80
2022-08-01T18:26:19.977Z,68.70
2022-08-01T18:28:47.809Z,68.80
2022-08-01T18:31:17.695Z,68.90
2022-08-01T18:33:46.088Z,68.90
2022-08-01T18:36:27.212Z,68.80
2022-08-01T18:39:06.393Z,68.90
2022-08-01T18:41:39.292Z,68.90
2022-08-01T18:44:08.761Z,69.00
2022-08-01T18:46:38.430Z,69.00
2022-08-01T18:49:07.747Z,69.00
2022-08-01T18:51:40.197Z,69.10
2022-08-01T18:54:13.234Z,69.10
2022-08-01T18:56:41.186Z,69.10
2022-08-01T18:59:09.043Z,69.10
2022-08-01T19:01:37.198Z,69.10
2022-08-01T19:04:05.218Z,69.10
2022-08-01T19:06:33.280Z,69.00
2022-08-01T19:09:02.835Z,68.90
2022-08-01T19:11:32.252Z,68.90
2022-08-01T19:14:02.243Z,68.80
2022-08-01T19:16:30.604Z,68.70
2022-08-01T19:18:58.466Z,69.50
2022-08-01T19:21:26.384Z,68.60
2022-08-01T19:24:11.993Z,68.50
2022-08-01T19:26:46.047Z,68.50
2022-08-01T19:29:18.026Z,68.40
2022-08-01T19:31:49.183Z,68.30
2022-08-01T19:34:18.256Z,68.30
2022-08-01T19:36:47.514Z,68.20
2022-08-01T19:39:16.744Z,68.10
2022-08-01T19:41:47.368Z,68.10
2022-08-01T19:44:16.778Z,68.10
2022-08-01T19:46:45.841Z,68.00
2022-08-01T19:49:14.383Z,68.10
2022-08-01T19:51:45.632Z,68.10
2022-08-01T19:54:14.030Z,68.10
2022-08-01T19:56:45.674Z,68.00
2022-08-01T19:59:18.971Z,68.00
2022-08-01T20:01:47.698Z,68.00
2022-08-01T20:04:16.409Z,67.90
2022-08-01T20:06:44.794Z,68.00
2022-08-01T20:09:14.034Z,67.90
2022-08-01T20:11:46.183Z,67.90
2022-08-01T20:14:15.298Z,67.80
2022-08-01T20:16:44.781Z,67.80
2022-08-01T20:19:13.198Z,67.90
2022-08-01T20:21:45.014Z,67.80
2022-08-01T20:24:38.192Z,67.80
2022-08-01T20:27:08.553Z,67.80
2022-08-01T20:29:37.670Z,67.80
2022-08-01T20:32:07.897Z,68.10
2022-08-01T20:34:38.918Z,67.70
2022-08-01T20:37:12.554Z,67.70
2022-08-01T20:39:44.295Z,67.80
2022-08-01T20:42:13.745Z,67.80
2022-08-01T20:44:42.453Z,67.80
2022-08-01T20:47:11.925Z,67.80
2022-08-01T20:49:43.317Z,67.80
2022-08-01T20:52:12.622Z,67.80
2022-08-01T20:54:41.719Z,67.80
2022-08-01T20:57:16.767Z,67.80
2022-08-01T20:59:55.818Z,67.80
2022-08-01T21:02:36.254Z,67.80
2022-08-01T21:05:07.335Z,67.80
2022-08-01T21:07:40.073Z,67.90
2022-08-01T21:10:09.552Z,67.80
2022-08-01T21:12:45.559Z,67.80
2022-08-01T21:15:20.625Z,67.80
2022-08-01T21:18:02.233Z,67.80
2022-08-01T21:20:33.182Z,67.80
2022-08-01T21:23:19.243Z,67.90
2022-08-01T21:25:48.983Z,67.90
2022-08-01T21:28:16.840Z,67.80
2022-08-01T21:30:55.626Z,67.80
2022-08-01T21:33:26.697Z,67.80
2022-08-01T21:35:59.133Z,67.80
2022-08-01T21:38:29.182Z,67.80
2022-08-01T21:40:57.011Z,67.80
2022-08-01T21:43:24.822Z,68.70
2022-08-01T21:45:57.869Z,67.80
2022-08-01T21:48:30.879Z,67.90
2022-08-01T21:51:00.535Z,67.80
2022-08-01T21:53:43.559Z,67.80
2022-08-01T21:56:23.686Z,67.80
2022-08-01T21:59:01.284Z,67.80
2022-08-01T22:01:52.258Z,67.80
2022-08-01T22:04:30.602Z,67.80
2022-08-01T22:07:01.047Z,67.80
2022-08-01T22:09:30.631Z,67.80
2022-08-01T22:12:02.087Z,67.80
2022-08-01T22:14:33.402Z,67.80
2022-08-01T22:17:02.094Z,67.80
2022-08-01T22:19:45.436Z,67.80
2022-08-01T22:22:50.506Z,67.80
2022-08-01T22:25:03.014Z,67.80
2022-08-01T22:28:02.789Z,67.70
2022-08-01T22:30:20.375Z,67.80
2022-08-01T22:33:07.839Z,67.80
2022-08-01T22:35:39.906Z,67.80
2022-08-01T22:38:09.686Z,67.70
2022-08-01T22:40:43.891Z,67.70
2022-08-01T22:43:30.383Z,67.80
2022-08-01T22:46:10.998Z,67.80
2022-08-01T22:48:45.730Z,67.70
2022-08-01T22:51:27.562Z,67.70
2022-08-01T22:54:03.673Z,67.70
2022-08-01T22:56:34.177Z,67.70
2022-08-01T22:59:08.811Z,67.70
2022-08-01T23:01:37.695Z,67.70
2022-08-01T23:04:07.510Z,67.80
2022-08-01T23:06:42.077Z,67.80
2022-08-01T23:09:10.786Z,67.70
2022-08-01T23:11:39.606Z,67.70
2022-08-01T23:14:08.140Z,67.70
2022-08-01T23:16:37.752Z,67.70
2022-08-01T23:19:06.028Z,67.70
2022-08-01T23:21:41.368Z,67.70
2022-08-01T23:24:10.566Z,67.70
2022-08-01T23:26:39.044Z,67.70
2022-08-01T23:29:07.706Z,67.70
2022-08-01T23:32:00.620Z,67.70
2022-08-01T23:34:23.727Z,67.70
2022-08-01T23:36:53.437Z,67.60
2022-08-01T23:39:21.246Z,67.70
2022-08-01T23:41:57.291Z,67.60
2022-08-01T23:44:26.497Z,67.70
2022-08-01T23:46:54.354Z,67.70
2022-08-01T23:49:22.334Z,67.70
2022-08-01T23:51:50.326Z,67.60
2022-08-01T23:54:20.014Z,67.60
2022-08-01T23:56:48.339Z,67.60
2022-08-01T23:59:16.206Z,67.60
